createdAt,value
2022-12-28T00:01:50.182Z,-6.40
2022-12-28T00:04:17.754Z,-6.35
2022-12-28T00:06:51.512Z,-6.47
2022-12-28T00:09:26.324Z,-6.37
2022-12-28T00:11:53.826Z,-6.23
2022-12-28T00:14:21.219Z,-6.10
2022-12-28T00:16:51.159Z,-6.15
2022-12-28T00:19:18.574Z,-6.10
2022-12-28T00:21:47.366Z,-6.15
2022-12-28T00:24:23.542Z,-5.93
2022-12-28T00:26:59.577Z,-6.07
2022-12-28T00:29:47.282Z,-6.08
2022-12-28T00:32:14.835Z,-5.93
2022-12-28T00:34:51.968Z,-6.00
2022-12-28T00:37:26.788Z,-6.12
2022-12-28T00:39:56.611Z,-6.19
2022-12-28T00:42:23.800Z,-6.13
2022-12-28T00:44:51.171Z,-6.10
2022-12-28T00:47:30.193Z,-6.19
2022-12-28T00:50:05.275Z,-6.17
2022-12-28T00:52:35.031Z,-6.15
2022-12-28T00:56:27.427Z,-6.21
2022-12-28T00:58:03.433Z,-6.01
2022-12-28T01:00:52.032Z,-6.45
2022-12-28T01:03:32.392Z,-6.41
2022-12-28T01:06:00.387Z,-6.30
2022-12-28T01:08:27.768Z,-6.34
2022-12-28T01:10:55.685Z,-6.16
2022-12-28T01:13:30.250Z,-6.15
2022-12-28T01:15:57.683Z,-6.04
2022-12-28T01:18:27.668Z,-6.15
2022-12-28T01:20:57.907Z,-6.14
2022-12-28T01:23:25.228Z,-6.12
2022-12-28T01:25:55.160Z,-5.88
2022-12-28T01:28:24.392Z,-5.93
2022-12-28T01:30:54.858Z,-5.84
2022-12-28T01:33:22.668Z,-5.76
2022-12-28T01:35:52.355Z,-5.92
2022-12-28T01:52:20.116Z,-5.75
2022-12-28T01:55:05.037Z,-5.62
2022-12-28T02:03:41.670Z,-5.43
2022-12-28T02:06:13.428Z,-5.43
2022-12-28T02:09:14.825Z,-5.47
2022-12-28T02:11:44.731Z,-5.54
2022-12-28T02:14:16.437Z,-5.43
2022-12-28T02:16:44.531Z,-5.55
2022-12-28T02:19:22.537Z,-5.47
2022-12-28T02:22:14.398Z,-5.49
2022-12-28T02:25:19.724Z,-5.52
2022-12-28T02:28:22.620Z,-5.42
2022-12-28T02:30:57.748Z,-5.50
2022-12-28T02:34:07.748Z,-5.60
2022-12-28T02:36:40.820Z,-5.73
2022-12-28T02:39:27.140Z,-5.59
2022-12-28T02:42:00.144Z,-5.66
2022-12-28T02:44:52.646Z,-5.46
2022-12-28T02:47:38.776Z,-5.51
2022-12-28T02:50:17.257Z,-5.67
2022-12-28T02:52:48.492Z,-5.55
2022-12-28T02:56:10.545Z,-5.51
2022-12-28T02:58:54.037Z,-5.64
2022-12-28T03:08:24.705Z,-5.99
2022-12-28T03:11:30.002Z,-5.90
2022-12-28T03:14:04.203Z,-5.92
2022-12-28T03:17:15.781Z,-5.80
2022-12-28T03:20:19.545Z,-5.60
2022-12-28T03:23:14.882Z,-5.61
2022-12-28T03:26:08.717Z,-5.50
2022-12-28T03:29:03.372Z,-5.51
2022-12-28T03:31:34.804Z,-5.49
2022-12-28T03:35:11.713Z,-5.48
2022-12-28T03:37:07.374Z,-5.59
2022-12-28T03:39:57.758Z,-5.53
2022-12-28T03:43:03.263Z,-5.80
2022-12-28T03:45:53.299Z,-5.73
2022-12-28T03:48:48.414Z,-5.80
2022-12-28T03:51:29.636Z,-5.85
2022-12-28T03:54:26.391Z,-5.93
2022-12-28T03:56:54.135Z,-5.93
2022-12-28T03:59:41.685Z,-5.76
2022-12-28T04:02:13.718Z,-5.63
2022-12-28T04:04:51.276Z,-5.91
2022-12-28T04:07:21.253Z,-5.96
2022-12-28T04:09:56.229Z,-5.82
2022-12-28T04:12:43.512Z,-5.81
2022-12-28T04:22:39.430Z,-5.59
2022-12-28T04:24:50.323Z,-5.64
2022-12-28T04:27:39.628Z,-5.61
2022-12-28T04:30:18.695Z,-5.62
2022-12-28T04:32:57.123Z,-5.96
2022-12-28T04:35:25.088Z,-5.65
2022-12-28T04:38:01.500Z,-5.50
2022-12-28T04:40:33.445Z,-5.63
2022-12-28T04:43:06.085Z,-5.57
2022-12-28T04:45:52.436Z,-5.55
2022-12-28T04:52:15.615Z,-5.83
2022-12-28T05:01:57.277Z,-5.74
2022-12-28T05:05:01.763Z,-6.17
2022-12-28T05:13:04.377Z,-6.15
2022-12-28T05:15:34.885Z,-6.02
2022-12-28T05:18:02.278Z,-6.00
2022-12-28T05:21:07.126Z,-6.01
2022-12-28T05:23:37.164Z,-6.28
2022-12-28T05:26:06.434Z,-6.08
2022-12-28T05:28:34.016Z,-6.05
2022-12-28T05:31:03.744Z,-6.11
2022-12-28T05:33:36.333Z,-6.15
2022-12-28T05:36:09.282Z,-6.13
2022-12-28T05:38:37.324Z,-6.15
2022-12-28T05:41:20.129Z,-6.12
2022-12-28T05:43:48.573Z,-6.04
2022-12-28T05:46:21.269Z,-6.06
2022-12-28T05:48:48.869Z,-5.78
2022-12-28T05:51:22.499Z,-5.76
2022-12-28T05:53:50.853Z,-5.89
2022-12-28T05:56:20.067Z,-5.88
2022-12-28T05:58:52.928Z,-5.75
2022-12-28T07:42:26.557Z,-5.70
2022-12-28T07:46:10.919Z,-5.73
2022-12-28T07:48:40.981Z,-5.57
2022-12-28T07:54:42.650Z,-5.52
2022-12-28T07:57:10.241Z,-5.55
2022-12-28T07:59:37.848Z,-5.79
2022-12-28T08:43:13.799Z,-5.75
2022-12-28T08:55:25.398Z,-5.84
2022-12-28T08:57:54.672Z,-5.66
2022-12-28T09:00:22.145Z,-5.61
2022-12-28T09:02:49.853Z,-5.41
2022-12-28T09:05:17.453Z,-5.45
2022-12-28T09:07:45.047Z,-5.34
2022-12-28T09:10:16.045Z,-5.26
2022-12-28T09:12:43.821Z,-5.35
2022-12-28T09:15:11.960Z,-5.30
2022-12-28T09:17:39.795Z,-5.21
2022-12-28T09:20:07.783Z,-5.38
2022-12-28T09:22:35.195Z,-5.53
2022-12-28T09:25:02.501Z,-5.35
2022-12-28T09:27:31.975Z,-5.48
2022-12-28T09:29:59.778Z,-5.41
2022-12-28T09:32:28.689Z,-5.43
2022-12-28T09:34:56.128Z,-5.33
2022-12-28T09:37:23.573Z,-5.18
2022-12-28T09:39:51.314Z,-5.24
2022-12-28T09:42:29.300Z,-5.40
2022-12-28T09:45:12.889Z,-5.49
2022-12-28T09:47:47.768Z,-5.46
2022-12-28T09:50:19.440Z,-5.42
2022-12-28T09:53:04.328Z,-5.27
2022-12-28T09:55:39.801Z,-5.15
2022-12-28T09:58:15.711Z,-5.12
2022-12-28T10:01:02.122Z,-5.11
2022-12-28T10:03:37.906Z,-5.20
2022-12-28T10:06:19.312Z,-5.16
2022-12-28T10:08:55.157Z,-5.10
2022-12-28T10:11:30.018Z,-5.13
2022-12-28T10:14:02.912Z,-5.07
2022-12-28T10:16:33.211Z,-5.05
2022-12-28T10:19:01.035Z,-5.02
2022-12-28T10:21:33.415Z,-5.09
2022-12-28T10:24:30.736Z,-5.11
2022-12-28T10:26:56.234Z,-5.24
2022-12-28T10:29:25.738Z,-5.31
2022-12-28T10:32:00.254Z,-5.56
2022-12-28T10:34:34.416Z,-5.75
2022-12-28T10:37:24.023Z,-6.08
2022-12-28T10:40:14.618Z,-6.22
2022-12-28T10:43:04.135Z,-5.94
2022-12-28T10:45:39.582Z,-5.71
2022-12-28T10:48:19.592Z,-5.67
2022-12-28T10:50:52.143Z,-5.59
2022-12-28T10:53:43.500Z,-5.71
2022-12-28T10:56:44.447Z,-5.53
2022-12-28T11:00:52.399Z,-5.62
2022-12-28T11:03:25.477Z,-5.72
2022-12-28T11:10:05.270Z,-5.84
2022-12-28T11:13:38.086Z,-5.84
2022-12-28T11:20:18.754Z,-5.60
2022-12-28T11:23:15.287Z,-5.75
2022-12-28T11:40:52.761Z,-5.57
2022-12-28T11:43:38.534Z,-5.64
2022-12-28T11:46:29.749Z,-5.82
2022-12-28T11:49:34.833Z,-5.66
2022-12-28T11:52:34.840Z,-5.66
2022-12-28T11:55:29.661Z,-5.85
2022-12-28T11:57:57.763Z,-5.76
2022-12-28T12:00:56.243Z,-5.82
2022-12-28T12:10:47.167Z,-5.85
2022-12-28T12:13:26.977Z,-5.79
2022-12-28T12:16:05.693Z,-5.88
2022-12-28T12:18:45.852Z,-5.89
2022-12-28T12:54:44.588Z,-5.90
2022-12-28T13:01:27.765Z,-5.91
2022-12-28T13:04:18.250Z,-6.09
2022-12-28T13:10:25.602Z,-6.21
2022-12-28T13:13:11.749Z,-6.19
2022-12-28T13:19:08.727Z,-6.15
2022-12-28T13:21:45.276Z,-6.12
2022-12-28T13:24:27.710Z,-6.08
2022-12-28T13:27:19.845Z,-5.99
2022-12-28T13:29:54.509Z,-6.08
2022-12-28T13:35:21.927Z,-5.85
2022-12-28T13:40:54.689Z,-5.90
2022-12-28T13:44:04.065Z,-5.61
2022-12-28T13:46:32.483Z,-5.67
2022-12-28T13:49:01.102Z,-5.53
2022-12-28T13:51:35.440Z,-5.49
2022-12-28T13:54:03.841Z,-5.64
2022-12-28T13:56:34.051Z,-5.74
2022-12-28T13:59:07.280Z,-5.74
2022-12-28T14:01:41.138Z,-5.86
2022-12-28T14:04:51.057Z,-5.91
2022-12-28T14:07:03.940Z,-5.82
2022-12-28T14:09:35.028Z,-5.79
2022-12-28T14:12:02.862Z,-5.81
2022-12-28T14:14:32.307Z,-5.84
2022-12-28T14:17:08.830Z,-5.73
2022-12-28T14:19:39.633Z,-5.73
2022-12-28T14:25:20.345Z,-5.82
2022-12-28T14:49:34.471Z,-5.85
2022-12-28T14:52:11.464Z,-5.74
2022-12-28T14:58:26.337Z,-5.71
2022-12-28T15:00:58.294Z,-5.77
2022-12-28T15:03:29.459Z,-5.62
2022-12-28T15:37:40.465Z,-5.61
2022-12-28T15:40:13.741Z,-5.68
2022-12-28T15:42:59.400Z,-5.58
2022-12-28T16:52:33.977Z,-5.59
2022-12-28T16:55:01.695Z,-5.66
2022-12-28T16:57:30.058Z,-5.70
2022-12-28T17:04:08.186Z,-5.59
2022-12-28T17:06:36.656Z,-5.57
2022-12-28T17:09:05.470Z,-5.61
2022-12-28T17:15:51.951Z,-5.22
2022-12-28T17:23:53.166Z,-5.35
2022-12-28T17:26:21.127Z,-5.15
2022-12-28T17:28:48.850Z,-5.21
2022-12-28T17:54:45.064Z,-5.14
2022-12-28T17:57:12.771Z,-5.12
2022-12-28T18:17:06.649Z,-5.14
2022-12-28T18:19:34.334Z,-5.02
2022-12-28T18:22:01.831Z,-4.96
2022-12-28T18:24:29.750Z,-5.04
2022-12-28T18:26:57.289Z,-4.94
2022-12-28T18:29:24.756Z,-4.87
2022-12-28T18:31:52.244Z,-4.86
2022-12-28T18:34:19.824Z,-4.73
2022-12-28T18:36:47.179Z,-4.88
2022-12-28T18:39:14.950Z,-4.90
2022-12-28T18:41:42.952Z,-4.99
2022-12-28T18:44:16.336Z,-4.83
2022-12-28T18:46:43.894Z,-4.94
2022-12-28T18:49:11.924Z,-4.82
2022-12-28T18:51:39.259Z,-4.62
2022-12-28T18:59:43.804Z,-4.66
2022-12-28T19:13:44.941Z,-4.52
2022-12-28T19:16:17.049Z,-4.72
2022-12-28T19:18:47.001Z,-4.87
2022-12-28T19:21:31.144Z,-4.87
2022-12-28T19:24:22.655Z,-4.80
2022-12-28T19:27:00.158Z,-4.76
2022-12-28T19:29:33.279Z,-4.78
2022-12-28T19:32:06.119Z,-4.72
2022-12-28T19:34:35.459Z,-4.80
2022-12-28T19:37:04.367Z,-4.95
2022-12-28T19:39:31.949Z,-4.71
2022-12-28T19:41:59.399Z,-4.72
2022-12-28T19:44:27.092Z,-4.62
2022-12-28T19:46:55.769Z,-4.56
2022-12-28T19:49:24.240Z,-4.67
2022-12-28T19:52:40.248Z,-4.49
2022-12-28T19:55:08.357Z,-4.52
2022-12-28T19:57:39.107Z,-4.57
2022-12-28T20:00:08.193Z,-4.62
2022-12-28T20:02:35.999Z,-4.59
2022-12-28T20:05:03.671Z,-4.59
2022-12-28T20:07:31.088Z,-4.56
2022-12-28T20:09:58.590Z,-4.53
2022-12-28T20:12:26.043Z,-4.45
2022-12-28T20:14:53.652Z,-4.49
2022-12-28T20:17:21.333Z,-4.46
2022-12-28T20:19:48.700Z,-4.42
2022-12-28T20:22:16.322Z,-4.51
2022-12-28T20:24:43.760Z,-4.55
2022-12-28T20:27:11.395Z,-4.42
2022-12-28T20:29:38.808Z,-4.43
2022-12-28T20:32:06.265Z,-4.59
2022-12-28T20:34:35.287Z,-4.49
2022-12-28T20:37:02.886Z,-4.56
2022-12-28T20:39:30.239Z,-4.41
2022-12-28T20:42:15.911Z,-4.42
2022-12-28T20:44:43.490Z,-4.79
2022-12-28T20:47:11.022Z,-4.65
2022-12-28T20:49:38.566Z,-4.43
2022-12-28T20:52:05.783Z,-4.42
2022-12-28T20:54:33.125Z,-4.51
2022-12-28T20:57:01.019Z,-4.43
2022-12-28T20:59:28.534Z,-4.31
2022-12-28T21:01:56.077Z,-4.33
2022-12-28T21:04:25.117Z,-4.34
2022-12-28T21:06:54.562Z,-4.34
2022-12-28T21:09:22.204Z,-4.13
2022-12-28T21:11:49.577Z,-4.11
2022-12-28T21:14:16.869Z,-4.12
2022-12-28T21:17:16.852Z,-4.15
2022-12-28T21:19:44.559Z,-4.33
2022-12-28T21:22:18.678Z,-4.29
2022-12-28T21:28:12.422Z,-4.30
2022-12-28T21:30:40.131Z,-4.20
2022-12-28T21:33:07.474Z,-4.08
2022-12-28T21:35:41.349Z,-4.00
2022-12-28T21:38:08.831Z,-4.18
2022-12-28T21:44:02.508Z,-4.24
2022-12-28T21:46:29.922Z,-4.22
2022-12-28T21:48:57.134Z,-4.38
2022-12-28T21:51:35.526Z,-4.25
2022-12-28T21:54:07.164Z,-4.35
2022-12-28T21:56:35.915Z,-4.36
2022-12-28T21:59:04.617Z,-4.36
2022-12-28T22:01:51.091Z,-4.20
2022-12-28T22:04:39.472Z,-4.10
2022-12-28T22:07:08.589Z,-4.33
2022-12-28T22:10:26.672Z,-4.29
2022-12-28T22:12:54.160Z,-4.26
2022-12-28T22:15:42.674Z,-4.40
2022-12-28T22:18:53.275Z,-4.25
2022-12-28T22:21:11.167Z,-4.36
2022-12-28T22:23:38.728Z,-4.35
2022-12-28T22:26:06.424Z,-4.36
2022-12-28T22:28:33.974Z,-4.29
2022-12-28T22:31:05.858Z,-4.23
2022-12-28T22:33:33.468Z,-4.28
2022-12-28T22:36:12.303Z,-4.21
2022-12-28T22:38:39.450Z,-4.21
2022-12-28T22:41:39.099Z,-4.35
2022-12-28T22:44:06.608Z,-4.15
2022-12-28T22:46:33.985Z,-4.24
2022-12-28T22:49:01.322Z,-4.21
2022-12-28T22:51:28.814Z,-4.35
2022-12-28T22:53:56.173Z,-4.30
2022-12-28T22:56:23.715Z,-4.10
2022-12-28T22:58:50.943Z,-3.99
2022-12-28T23:01:20.358Z,-4.10
2022-12-28T23:03:48.765Z,-4.22
2022-12-28T23:06:18.537Z,-4.18
2022-12-28T23:08:46.842Z,-4.05
2022-12-28T23:11:35.327Z,-3.86
2022-12-28T23:14:43.365Z,-3.83
2022-12-28T23:17:14.241Z,-3.82
2022-12-28T23:20:01.677Z,-3.87
2022-12-28T23:22:50.174Z,-4.07
2022-12-28T23:25:38.855Z,-3.89
2022-12-28T23:28:09.215Z,-3.94
2022-12-28T23:30:47.256Z,-3.88
2022-12-28T23:33:15.574Z,-4.01
2022-12-28T23:35:42.875Z,-4.02
2022-12-28T23:38:10.499Z,-4.03
2022-12-28T23:40:42.125Z,-4.01
2022-12-28T23:43:09.656Z,-3.92
2022-12-28T23:45:37.325Z,-4.04
2022-12-28T23:48:05.578Z,-3.97
2022-12-28T23:50:33.222Z,-4.09
2022-12-28T23:53:00.588Z,-4.22
2022-12-28T23:55:27.864Z,-4.30
2022-12-28T23:57:55.061Z,-4.16
